Terminal Aerodrome Forecast
Issued by NWS

Home | Current Version | Previous Version | Text Only | Print | Product List | Glossary On
Versions: 1 2 3 4 5 6 7 8 9 10 11 12
000
FTUS45 KABQ 292320
TAFSAF
TAF
KSAF 292320Z 3000/3024 26012G22KT P6SM SCT110
     FM300200 35010KT P6SM SCT110
     FM300600 12015G25KT P6SM FEW050 SCT090
     FM301500 15013G21KT P6SM SCT040
     FM301900 19010G18KT P6SM FEW050 SCT080=

USA.gov is the U.S. government's official web portal to all federal, state and local government web resources and services.